sensor_id;sensor_type;location;lat;lon;timestamp;pressure;altitude;pressure_sealevel;temperature;humidity
47374;BME280;33123;50.118;10.272;2023-04-01T00:02:00;96070.34;;;10.91;70.08
47374;BME280;33123;50.118;10.272;2023-04-01T00:04:27;96055.69;;;10.85;70.43
47374;BME280;33123;50.118;10.272;2023-04-01T00:06:55;96072.66;;;10.79;70.64
47374;BME280;33123;50.118;10.272;2023-04-01T00:09:22;96071.56;;;10.80;70.42
47374;BME280;33123;50.118;10.272;2023-04-01T00:11:48;96066.75;;;10.68;70.81
47374;BME280;33123;50.118;10.272;2023-04-01T00:14:15;96057.53;;;10.84;69.99
47374;BME280;33123;50.118;10.272;2023-04-01T00:16:41;96068.16;;;10.79;70.05
47374;BME280;33123;50.118;10.272;2023-04-01T00:19:08;96063.00;;;10.88;70.03
47374;BME280;33123;50.118;10.272;2023-04-01T00:21:35;96052.06;;;10.81;70.03
47374;BME280;33123;50.118;10.272;2023-04-01T00:24:03;96037.06;;;10.63;70.29
47374;BME280;33123;50.118;10.272;2023-04-01T00:26:30;96048.84;;;10.84;69.97
47374;BME280;33123;50.118;10.272;2023-04-01T00:28:56;96056.94;;;10.55;70.87
47374;BME280;33123;50.118;10.272;2023-04-01T00:31:24;96055.34;;;10.73;70.69
47374;BME280;33123;50.118;10.272;2023-04-01T00:33:51;96050.50;;;10.80;70.84
47374;BME280;33123;50.118;10.272;2023-04-01T00:36:20;96054.66;;;10.67;71.04
47374;BME280;33123;50.118;10.272;2023-04-01T00:38:48;96006.66;;;10.32;70.96
47374;BME280;33123;50.118;10.272;2023-04-01T00:41:18;96052.13;;;10.38;72.14
47374;BME280;33123;50.118;10.272;2023-04-01T00:43:48;96057.72;;;10.55;71.89
47374;BME280;33123;50.118;10.272;2023-04-01T00:46:15;96057.78;;;10.69;71.41
47374;BME280;33123;50.118;10.272;2023-04-01T00:48:44;96045.66;;;10.68;71.80
47374;BME280;33123;50.118;10.272;2023-04-01T00:51:14;96047.53;;;10.68;71.65
47374;BME280;33123;50.118;10.272;2023-04-01T00:53:48;96041.31;;;10.77;71.20
47374;BME280;33123;50.118;10.272;2023-04-01T00:56:21;96050.00;;;10.78;71.05
47374;BME280;33123;50.118;10.272;2023-04-01T00:58:50;96045.53;;;10.78;70.97
47374;BME280;33123;50.118;10.272;2023-04-01T01:01:18;96043.97;;;10.77;71.33
47374;BME280;33123;50.118;10.272;2023-04-01T01:03:46;96050.00;;;10.78;71.21
47374;BME280;33123;50.118;10.272;2023-04-01T01:06:22;96043.22;;;10.91;70.18
47374;BME280;33123;50.118;10.272;2023-04-01T01:09:21;96043.00;;;10.87;70.51
47374;BME280;33123;50.118;10.272;2023-04-01T01:11:57;96043.25;;;10.72;71.01
47374;BME280;33123;50.118;10.272;2023-04-01T01:14:36;96044.75;;;10.59;71.41
47374;BME280;33123;50.118;10.272;2023-04-01T01:17:13;96016.53;;;10.60;70.26
47374;BME280;33123;50.118;10.272;2023-04-01T01:26:01;96044.38;;;10.84;69.99
47374;BME280;33123;50.118;10.272;2023-04-01T01:28:57;96038.44;;;10.93;69.37
47374;BME280;33123;50.118;10.272;2023-04-01T01:31:34;96038.34;;;10.98;69.26
47374;BME280;33123;50.118;10.272;2023-04-01T01:34:11;96033.53;;;10.86;69.54
47374;BME280;33123;50.118;10.272;2023-04-01T01:36:44;96032.50;;;11.01;68.88
47374;BME280;33123;50.118;10.272;2023-04-01T01:39:13;96025.13;;;10.84;68.97
47374;BME280;33123;50.118;10.272;2023-04-01T01:41:42;96038.72;;;10.91;69.00
47374;BME280;33123;50.118;10.272;2023-04-01T01:44:12;96021.34;;;10.90;68.90
47374;BME280;33123;50.118;10.272;2023-04-01T01:46:41;96025.53;;;10.91;68.73
47374;BME280;33123;50.118;10.272;2023-04-01T01:49:10;96021.81;;;11.11;68.29
47374;BME280;33123;50.118;10.272;2023-04-01T01:51:38;96020.41;;;11.00;68.41
47374;BME280;33123;50.118;10.272;2023-04-01T01:54:06;96023.00;;;10.86;69.10
47374;BME280;33123;50.118;10.272;2023-04-01T01:56:34;96025.59;;;11.05;68.67
47374;BME280;33123;50.118;10.272;2023-04-01T01:59:03;96025.94;;;10.98;68.81
47374;BME280;33123;50.118;10.272;2023-04-01T02:01:35;96028.59;;;10.98;68.51
47374;BME280;33123;50.118;10.272;2023-04-01T02:04:04;96025.78;;;10.76;69.44
47374;BME280;33123;50.118;10.272;2023-04-01T02:06:34;96027.47;;;10.86;69.24
47374;BME280;33123;50.118;10.272;2023-04-01T02:09:07;96029.97;;;10.96;68.76
47374;BME280;33123;50.118;10.272;2023-04-01T02:11:40;96023.47;;;10.88;68.46
47374;BME280;33123;50.118;10.272;2023-04-01T02:14:09;96025.94;;;10.98;68.58
47374;BME280;33123;50.118;10.272;2023-04-01T02:16:40;96019.97;;;10.93;68.71
47374;BME280;33123;50.118;10.272;2023-04-01T02:19:10;96022.91;;;10.91;68.73
47374;BME280;33123;50.118;10.272;2023-04-01T02:21:40;96022.44;;;10.89;68.60
47374;BME280;33123;50.118;10.272;2023-04-01T02:24:12;95992.75;;;10.65;69.02
47374;BME280;33123;50.118;10.272;2023-04-01T02:26:40;96025.06;;;10.89;68.82
47374;BME280;33123;50.118;10.272;2023-04-01T02:29:08;96030.34;;;10.89;68.76
47374;BME280;33123;50.118;10.272;2023-04-01T02:31:35;96027.69;;;10.89;68.90
47374;BME280;33123;50.118;10.272;2023-04-01T02:34:04;96022.34;;;10.94;68.72
47374;BME280;33123;50.118;10.272;2023-04-01T02:36:31;96027.44;;;10.72;69.52
47374;BME280;33123;50.118;10.272;2023-04-01T02:38:58;96032.72;;;10.72;69.55
47374;BME280;33123;50.118;10.272;2023-04-01T02:41:29;96026.94;;;10.70;70.06
47374;BME280;33123;50.118;10.272;2023-04-01T02:43:55;96035.59;;;10.89;69.44
47374;BME280;33123;50.118;10.272;2023-04-01T02:46:23;96027.63;;;10.94;69.53
47374;BME280;33123;50.118;10.272;2023-04-01T02:48:50;96034.91;;;10.83;69.63
47374;BME280;33123;50.118;10.272;2023-04-01T02:51:17;96027.25;;;10.82;69.89
47374;BME280;33123;50.118;10.272;2023-04-01T02:53:44;96031.66;;;10.73;70.13
47374;BME280;33123;50.118;10.272;2023-04-01T02:56:10;96031.84;;;10.76;70.63
47374;BME280;33123;50.118;10.272;2023-04-01T02:58:38;96041.03;;;10.79;70.58
47374;BME280;33123;50.118;10.272;2023-04-01T03:01:05;96047.97;;;10.56;71.32
47374;BME280;33123;50.118;10.272;2023-04-01T03:03:33;96036.47;;;10.66;70.91
47374;BME280;33123;50.118;10.272;2023-04-01T03:06:05;96042.19;;;10.73;71.01
47374;BME280;33123;50.118;10.272;2023-04-01T03:08:31;96033.44;;;10.40;71.66
47374;BME280;33123;50.118;10.272;2023-04-01T03:10:58;96037.56;;;10.27;72.51
47374;BME280;33123;50.118;10.272;2023-04-01T03:13:24;96038.56;;;10.50;71.15
47374;BME280;33123;50.118;10.272;2023-04-01T03:15:53;96039.28;;;10.55;71.39
47374;BME280;33123;50.118;10.272;2023-04-01T03:18:20;96039.75;;;10.57;71.40
47374;BME280;33123;50.118;10.272;2023-04-01T03:20:46;96041.19;;;10.69;70.78
47374;BME280;33123;50.118;10.272;2023-04-01T03:23:13;96044.63;;;10.50;71.20
47374;BME280;33123;50.118;10.272;2023-04-01T03:25:41;96046.19;;;10.51;71.39
47374;BME280;33123;50.118;10.272;2023-04-01T03:28:08;96038.75;;;10.53;70.91
47374;BME280;33123;50.118;10.272;2023-04-01T03:30:35;96037.50;;;10.51;71.07
47374;BME280;33123;50.118;10.272;2023-04-01T03:33:03;96041.28;;;10.45;70.65
47374;BME280;33123;50.118;10.272;2023-04-01T03:35:29;96036.56;;;10.61;70.57
47374;BME280;33123;50.118;10.272;2023-04-01T03:37:56;96033.31;;;10.50;70.17
47374;BME280;33123;50.118;10.272;2023-04-01T03:40:23;96033.63;;;10.43;70.28
47374;BME280;33123;50.118;10.272;2023-04-01T03:42:51;96037.84;;;10.63;69.86
47374;BME280;33123;50.118;10.272;2023-04-01T03:45:18;96037.69;;;10.54;69.50
47374;BME280;33123;50.118;10.272;2023-04-01T03:47:44;96038.63;;;10.64;69.15
47374;BME280;33123;50.118;10.272;2023-04-01T03:50:12;96040.19;;;10.65;69.38
47374;BME280;33123;50.118;10.272;2023-04-01T03:52:39;96044.47;;;10.61;69.04
47374;BME280;33123;50.118;10.272;2023-04-01T03:55:06;96036.69;;;10.69;68.61
47374;BME280;33123;50.118;10.272;2023-04-01T03:57:33;96048.22;;;10.73;68.47
47374;BME280;33123;50.118;10.272;2023-04-01T04:00:00;96042.88;;;10.60;69.52
47374;BME280;33123;50.118;10.272;2023-04-01T04:02:27;96035.34;;;10.72;68.48
47374;BME280;33123;50.118;10.272;2023-04-01T04:04:53;96048.00;;;10.70;68.77
47374;BME280;33123;50.118;10.272;2023-04-01T04:07:21;96053.16;;;10.61;68.79
47374;BME280;33123;50.118;10.272;2023-04-01T04:09:48;96052.72;;;10.73;69.09
47374;BME280;33123;50.118;10.272;2023-04-01T04:12:15;96040.44;;;10.82;68.68
47374;BME280;33123;50.118;10.272;2023-04-01T04:14:41;95951.94;;;10.11;68.96
47374;BME280;33123;50.118;10.272;2023-04-01T04:17:10;96039.41;;;10.64;68.93
47374;BME280;33123;50.118;10.272;2023-04-01T04:19:41;96042.34;;;10.63;68.40
47374;BME280;33123;50.118;10.272;2023-04-01T04:22:08;96042.34;;;10.63;68.62
47374;BME280;33123;50.118;10.272;2023-04-01T04:24:36;96045.88;;;10.72;68.41
47374;BME280;33123;50.118;10.272;2023-04-01T04:27:03;96046.59;;;10.58;68.46
47374;BME280;33123;50.118;10.272;2023-04-01T04:29:30;96047.75;;;10.52;68.38
47374;BME280;33123;50.118;10.272;2023-04-01T04:31:57;96040.50;;;10.44;68.63
47374;BME280;33123;50.118;10.272;2023-04-01T04:34:24;96043.47;;;10.56;68.34
47374;BME280;33123;50.118;10.272;2023-04-01T04:36:50;96054.72;;;10.62;68.06
47374;BME280;33123;50.118;10.272;2023-04-01T04:39:17;96047.38;;;10.59;68.09
47374;BME280;33123;50.118;10.272;2023-04-01T04:41:45;96045.38;;;10.70;68.09
47374;BME280;33123;50.118;10.272;2023-04-01T04:44:12;96049.22;;;10.58;68.74
47374;BME280;33123;50.118;10.272;2023-04-01T04:46:38;96054.66;;;10.67;68.32
47374;BME280;33123;50.118;10.272;2023-04-01T04:49:05;96045.66;;;10.68;68.35
47374;BME280;33123;50.118;10.272;2023-04-01T04:51:32;96041.59;;;10.76;68.04
47374;BME280;33123;50.118;10.272;2023-04-01T04:54:01;96044.88;;;10.68;68.07
47374;BME280;33123;50.118;10.272;2023-04-01T04:56:28;96047.44;;;10.54;68.30
47374;BME280;33123;50.118;10.272;2023-04-01T04:58:57;96018.47;;;10.54;68.44
47374;BME280;33123;50.118;10.272;2023-04-01T05:01:25;96004.69;;;10.24;69.05
47374;BME280;33123;50.118;10.272;2023-04-01T05:03:51;96045.47;;;10.46;68.89
47374;BME280;33123;50.118;10.272;2023-04-01T05:06:19;96032.66;;;10.39;68.92
47374;BME280;33123;50.118;10.272;2023-04-01T05:08:46;96051.16;;;10.34;69.84
47374;BME280;33123;50.118;10.272;2023-04-01T05:11:15;96058.06;;;10.68;69.28
47374;BME280;33123;50.118;10.272;2023-04-01T05:13:42;96047.97;;;10.56;68.74
47374;BME280;33123;50.118;10.272;2023-04-01T05:16:13;96051.88;;;10.58;69.69
47374;BME280;33123;50.118;10.272;2023-04-01T05:18:40;96047.00;;;10.66;69.52
47374;BME280;33123;50.118;10.272;2023-04-01T05:21:07;96052.06;;;10.43;69.86
47374;BME280;33123;50.118;10.272;2023-04-01T05:23:35;96049.88;;;10.50;70.46
47374;BME280;33123;50.118;10.272;2023-04-01T05:26:03;96056.34;;;10.58;70.56
47374;BME280;33123;50.118;10.272;2023-04-01T05:28:30;96060.03;;;10.38;71.52
47374;BME280;33123;50.118;10.272;2023-04-01T05:30:58;96064.53;;;10.38;71.58
47374;BME280;33123;50.118;10.272;2023-04-01T05:33:27;96063.69;;;10.42;72.05
47374;BME280;33123;50.118;10.272;2023-04-01T05:35:54;96067.31;;;10.27;72.59
47374;BME280;33123;50.118;10.272;2023-04-01T05:38:21;96049.72;;;10.23;72.88
47374;BME280;33123;50.118;10.272;2023-04-01T05:40:47;96060.47;;;10.26;73.03
47374;BME280;33123;50.118;10.272;2023-04-01T05:43:14;96058.41;;;10.42;73.13
47374;BME280;33123;50.118;10.272;2023-04-01T05:45:41;96065.41;;;10.33;73.23
47374;BME280;33123;50.118;10.272;2023-04-01T05:48:07;96056.69;;;10.32;73.90
47374;BME280;33123;50.118;10.272;2023-04-01T05:50:35;96053.28;;;10.32;73.96
47374;BME280;33123;50.118;10.272;2023-04-01T05:53:02;96056.56;;;10.24;74.29
47374;BME280;33123;50.118;10.272;2023-04-01T05:55:40;96046.97;;;10.33;74.18
47374;BME280;33123;50.118;10.272;2023-04-01T05:58:07;96055.78;;;10.23;74.60
47374;BME280;33123;50.118;10.272;2023-04-01T06:00:34;96049.16;;;10.26;74.61
47374;BME280;33123;50.118;10.272;2023-04-01T06:03:00;96037.84;;;10.25;74.79
47374;BME280;33123;50.118;10.272;2023-04-01T06:05:29;96047.47;;;10.35;74.88
47374;BME280;33123;50.118;10.272;2023-04-01T06:08:01;96040.69;;;10.48;74.52
47374;BME280;33123;50.118;10.272;2023-04-01T06:10:42;96046.41;;;10.55;74.14
47374;BME280;33123;50.118;10.272;2023-04-01T06:13:20;96045.09;;;10.52;74.00
47374;BME280;33123;50.118;10.272;2023-04-01T06:15:55;96051.94;;;10.53;73.68
47374;BME280;33123;50.118;10.272;2023-04-01T06:18:44;96048.78;;;10.70;72.81
47374;BME280;33123;50.118;10.272;2023-04-01T06:21:33;96050.16;;;10.68;72.85
47374;BME280;33123;50.118;10.272;2023-04-01T06:24:11;96046.09;;;10.38;73.52
47374;BME280;33123;50.118;10.272;2023-04-01T06:26:49;96042.19;;;10.73;73.26
47374;BME280;33123;50.118;10.272;2023-04-01T06:29:47;96043.47;;;10.56;72.65
47374;BME280;33123;50.118;10.272;2023-04-01T06:32:32;96049.88;;;10.50;73.10
47374;BME280;33123;50.118;10.272;2023-04-01T06:35:31;96048.88;;;10.46;73.30
47374;BME280;33123;50.118;10.272;2023-04-01T06:38:15;95996.81;;;10.00;73.00
47374;BME280;33123;50.118;10.272;2023-04-01T06:41:08;96046.63;;;10.40;73.25
47374;BME280;33123;50.118;10.272;2023-04-01T06:43:51;96055.44;;;10.68;72.38
47374;BME280;33123;50.118;10.272;2023-04-01T06:46:29;96045.53;;;10.41;73.06
47374;BME280;33123;50.118;10.272;2023-04-01T06:49:16;96055.22;;;10.64;72.44
47374;BME280;33123;50.118;10.272;2023-04-01T06:51:50;96050.97;;;10.49;72.15
47374;BME280;33123;50.118;10.272;2023-04-01T06:54:21;96057.00;;;10.69;71.83
47374;BME280;33123;50.118;10.272;2023-04-01T06:56:54;96048.09;;;10.46;72.74
47374;BME280;33123;50.118;10.272;2023-04-01T06:59:27;96052.53;;;10.50;71.93
47374;BME280;33123;50.118;10.272;2023-04-01T07:01:56;96056.72;;;10.51;72.27
47374;BME280;33123;50.118;10.272;2023-04-01T07:04:27;96050.50;;;10.80;70.98
47374;BME280;33123;50.118;10.272;2023-04-01T07:06:58;96053.63;;;10.82;71.34
47374;BME280;33123;50.118;10.272;2023-04-01T07:09:28;96060.56;;;10.78;71.09
47374;BME280;33123;50.118;10.272;2023-04-01T07:12:02;96061.09;;;10.75;71.31
47374;BME280;33123;50.118;10.272;2023-04-01T07:14:34;96053.50;;;10.73;71.47
47374;BME280;33123;50.118;10.272;2023-04-01T07:17:04;96067.13;;;10.62;71.31
47374;BME280;33123;50.118;10.272;2023-04-01T07:19:37;96046.88;;;10.76;71.79
47374;BME280;33123;50.118;10.272;2023-04-01T07:22:14;96058.25;;;10.90;71.21
47374;BME280;33123;50.118;10.272;2023-04-01T07:24:45;96055.31;;;10.92;70.85
47374;BME280;33123;50.118;10.272;2023-04-01T07:27:14;96066.44;;;10.70;70.63
47374;BME280;33123;50.118;10.272;2023-04-01T07:29:41;96058.69;;;10.78;70.76
47374;BME280;33123;50.118;10.272;2023-04-01T07:32:24;96059.78;;;10.77;70.40
47374;BME280;33123;50.118;10.272;2023-04-01T07:35:04;96066.88;;;10.77;70.69
47374;BME280;33123;50.118;10.272;2023-04-01T07:37:39;96067.00;;;10.86;70.88
47374;BME280;33123;50.118;10.272;2023-04-01T07:40:15;96069.19;;;10.97;70.58
47374;BME280;33123;50.118;10.272;2023-04-01T07:42:58;96075.84;;;10.76;71.13
47374;BME280;33123;50.118;10.272;2023-04-01T07:45:31;96068.78;;;10.90;70.82
47374;BME280;33123;50.118;10.272;2023-04-01T07:48:12;96074.25;;;10.94;70.64
47374;BME280;33123;50.118;10.272;2023-04-01T07:50:47;96082.03;;;10.85;70.88
47374;BME280;33123;50.118;10.272;2023-04-01T07:53:18;96073.56;;;10.69;70.68
47374;BME280;33123;50.118;10.272;2023-04-01T07:55:50;96081.81;;;11.00;70.44
47374;BME280;33123;50.118;10.272;2023-04-01T07:58:29;96084.00;;;10.93;71.00
47374;BME280;33123;50.118;10.272;2023-04-01T08:01:02;96078.81;;;11.07;70.84
47374;BME280;33123;50.118;10.272;2023-04-01T08:03:34;96082.22;;;11.07;70.96
47374;BME280;33123;50.118;10.272;2023-04-01T08:06:07;96084.78;;;10.94;71.20
47374;BME280;33123;50.118;10.272;2023-04-01T08:08:46;96087.38;;;10.80;72.47
47374;BME280;33123;50.118;10.272;2023-04-01T08:11:25;96091.50;;;11.05;71.96
47374;BME280;33123;50.118;10.272;2023-04-01T08:14:04;96099.50;;;10.81;72.60
47374;BME280;33123;50.118;10.272;2023-04-01T08:16:40;96083.59;;;10.86;73.26
47374;BME280;33123;50.118;10.272;2023-04-01T08:19:15;96082.34;;;10.83;72.93
47374;BME280;33123;50.118;10.272;2023-04-01T08:21:48;96072.09;;;10.63;73.52
47374;BME280;33123;50.118;10.272;2023-04-01T08:24:22;96084.63;;;10.52;74.54
47374;BME280;33123;50.118;10.272;2023-04-01T08:26:53;96094.25;;;10.62;74.36
47374;BME280;33123;50.118;10.272;2023-04-01T08:29:26;96089.75;;;10.63;74.39
47374;BME280;33123;50.118;10.272;2023-04-01T08:32:01;96087.25;;;10.52;75.47
47374;BME280;33123;50.118;10.272;2023-04-01T08:34:35;96069.59;;;10.53;74.69
47374;BME280;33123;50.118;10.272;2023-04-01T08:37:05;96090.94;;;10.70;74.35
47374;BME280;33123;50.118;10.272;2023-04-01T08:39:37;96092.31;;;10.68;74.99
47374;BME280;33123;50.118;10.272;2023-04-01T08:42:21;96088.59;;;10.88;74.25
47374;BME280;33123;50.118;10.272;2023-04-01T08:45:19;96098.00;;;10.75;74.33
47374;BME280;33123;50.118;10.272;2023-04-01T08:47:56;96082.75;;;10.91;73.87
47374;BME280;33123;50.118;10.272;2023-04-01T08:51:01;96079.97;;;11.01;74.38
47374;BME280;33123;50.118;10.272;2023-04-01T08:56:20;96090.28;;;10.97;74.11
47374;BME280;33123;50.118;10.272;2023-04-01T08:59:09;96091.44;;;10.91;74.86
47374;BME280;33123;50.118;10.272;2023-04-01T09:02:05;96087.31;;;10.85;74.99
47374;BME280;33123;50.118;10.272;2023-04-01T09:07:40;96088.66;;;11.01;75.30
47374;BME280;33123;50.118;10.272;2023-04-01T09:10:28;96096.22;;;10.89;74.97
47374;BME280;33123;50.118;10.272;2023-04-01T09:13:19;96086.84;;;10.83;75.44
47374;BME280;33123;50.118;10.272;2023-04-01T09:16:12;96097.59;;;10.68;75.43
47374;BME280;33123;50.118;10.272;2023-04-01T09:19:15;96095.84;;;10.77;75.14
47374;BME280;33123;50.118;10.272;2023-04-01T09:28:05;96100.16;;;10.73;75.90
47374;BME280;33123;50.118;10.272;2023-04-01T09:31:07;96099.13;;;10.88;75.94
47374;BME280;33123;50.118;10.272;2023-04-01T09:37:09;96106.69;;;10.94;75.55
47374;BME280;33123;50.118;10.272;2023-04-01T09:42:48;96106.91;;;10.79;75.95
47374;BME280;33123;50.118;10.272;2023-04-01T09:45:44;96103.13;;;10.85;76.33
47374;BME280;33123;50.118;10.272;2023-04-01T09:48:33;96111.25;;;10.70;76.65
47374;BME280;33123;50.118;10.272;2023-04-01T09:51:13;96104.56;;;10.77;75.83
47374;BME280;33123;50.118;10.272;2023-04-01T09:54:01;96104.41;;;10.88;75.83
47374;BME280;33123;50.118;10.272;2023-04-01T09:56:49;96106.41;;;10.77;75.62
47374;BME280;33123;50.118;10.272;2023-04-01T09:59:49;96109.19;;;10.86;76.28
47374;BME280;33123;50.118;10.272;2023-04-01T10:02:42;96113.78;;;10.94;75.77
47374;BME280;33123;50.118;10.272;2023-04-01T10:08:39;96109.41;;;10.89;75.39
47374;BME280;33123;50.118;10.272;2023-04-01T10:11:43;96115.94;;;10.92;75.29
47374;BME280;33123;50.118;10.272;2023-04-01T10:14:31;96111.53;;;11.06;75.53
47374;BME280;33123;50.118;10.272;2023-04-01T10:17:21;96104.31;;;11.12;75.55
47374;BME280;33123;50.118;10.272;2023-04-01T10:20:24;96102.75;;;11.10;75.13
47374;BME280;33123;50.118;10.272;2023-04-01T10:23:18;96101.13;;;10.77;76.02
47374;BME280;33123;50.118;10.272;2023-04-01T10:26:07;96101.84;;;11.01;75.16
47374;BME280;33123;50.118;10.272;2023-04-01T10:29:14;96106.72;;;11.08;75.97
47374;BME280;33123;50.118;10.272;2023-04-01T10:35:10;96100.16;;;11.24;76.13
47374;BME280;33123;50.118;10.272;2023-04-01T10:38:19;96099.59;;;11.27;75.03
47374;BME280;33123;50.118;10.272;2023-04-01T10:44:33;96094.78;;;11.29;75.30
47374;BME280;33123;50.118;10.272;2023-04-01T10:47:32;96097.81;;;11.23;75.21
47374;BME280;33123;50.118;10.272;2023-04-01T10:50:32;96097.44;;;11.43;74.73
47374;BME280;33123;50.118;10.272;2023-04-01T10:53:27;96092.38;;;11.47;74.26
47374;BME280;33123;50.118;10.272;2023-04-01T10:59:20;96057.19;;;11.37;73.21
47374;BME280;33123;50.118;10.272;2023-04-01T11:05:13;96089.78;;;11.60;73.70
47374;BME280;33123;50.118;10.272;2023-04-01T11:08:15;96095.47;;;11.81;72.82
47374;BME280;33123;50.118;10.272;2023-04-01T11:14:21;96100.03;;;11.76;72.78
47374;BME280;33123;50.118;10.272;2023-04-01T11:17:11;96090.88;;;11.73;72.84
47374;BME280;33123;50.118;10.272;2023-04-01T11:22:58;96097.50;;;11.57;72.95
47374;BME280;33123;50.118;10.272;2023-04-01T11:25:52;96095.22;;;11.83;73.01
47374;BME280;33123;50.118;10.272;2023-04-01T11:28:53;96100.53;;;11.64;73.25
47374;BME280;33123;50.118;10.272;2023-04-01T11:31:42;96082.03;;;11.64;73.19
47374;BME280;33123;50.118;10.272;2023-04-01T11:34:36;96095.59;;;11.90;73.87
47374;BME280;33123;50.118;10.272;2023-04-01T11:37:17;96096.09;;;12.06;74.84
47374;BME280;33123;50.118;10.272;2023-04-01T11:40:02;96095.22;;;12.10;73.23
47374;BME280;33123;50.118;10.272;2023-04-01T11:42:40;96099.47;;;12.20;72.08
47374;BME280;33123;50.118;10.272;2023-04-01T11:45:19;96087.84;;;12.35;72.83
47374;BME280;33123;50.118;10.272;2023-04-01T11:50:52;96096.13;;;12.42;71.98
47374;BME280;33123;50.118;10.272;2023-04-01T11:53:36;96109.06;;;12.30;71.61
47374;BME280;33123;50.118;10.272;2023-04-01T11:56:13;96105.63;;;12.43;71.24
47374;BME280;33123;50.118;10.272;2023-04-01T11:58:56;96098.47;;;12.43;70.08
47374;BME280;33123;50.118;10.272;2023-04-01T12:01:39;96106.66;;;12.69;71.24
47374;BME280;33123;50.118;10.272;2023-04-01T12:04:41;96110.19;;;12.65;71.46
47374;BME280;33123;50.118;10.272;2023-04-01T12:07:20;96102.00;;;12.53;71.01
47374;BME280;33123;50.118;10.272;2023-04-01T12:09:53;96106.75;;;12.64;71.20
47374;BME280;33123;50.118;10.272;2023-04-01T12:12:27;96113.50;;;12.71;70.02
47374;BME280;33123;50.118;10.272;2023-04-01T12:15:03;96119.66;;;12.80;70.06
47374;BME280;33123;50.118;10.272;2023-04-01T12:17:41;96106.88;;;12.59;69.70
47374;BME280;33123;50.118;10.272;2023-04-01T12:20:26;96117.88;;;12.75;68.74
47374;BME280;33123;50.118;10.272;2023-04-01T12:23:04;96111.38;;;12.95;68.89
47374;BME280;33123;50.118;10.272;2023-04-01T12:26:05;96113.81;;;12.91;69.76
47374;BME280;33123;50.118;10.272;2023-04-01T12:28:43;96122.88;;;12.77;69.29
47374;BME280;33123;50.118;10.272;2023-04-01T12:31:19;96113.75;;;12.47;70.36
47374;BME280;33123;50.118;10.272;2023-04-01T12:34:01;96126.22;;;12.68;70.13
47374;BME280;33123;50.118;10.272;2023-04-01T12:36:49;96126.44;;;12.72;70.55
47374;BME280;33123;50.118;10.272;2023-04-01T12:39:33;96135.56;;;12.66;70.01
47374;BME280;33123;50.118;10.272;2023-04-01T12:42:11;96121.19;;;12.81;71.02
47374;BME280;33123;50.118;10.272;2023-04-01T12:44:55;96125.50;;;12.77;70.83
47374;BME280;33123;50.118;10.272;2023-04-01T12:47:43;96121.34;;;12.98;70.90
47374;BME280;33123;50.118;10.272;2023-04-01T12:50:22;96126.16;;;12.96;71.46
47374;BME280;33123;50.118;10.272;2023-04-01T12:56:13;96123.13;;;12.53;73.08
47374;BME280;33123;50.118;10.272;2023-04-01T12:59:02;96122.50;;;12.69;72.23
47374;BME280;33123;50.118;10.272;2023-04-01T13:07:50;96137.63;;;12.41;72.93
47374;BME280;33123;50.118;10.272;2023-04-01T13:10:27;96136.13;;;12.49;74.70
47374;BME280;33123;50.118;10.272;2023-04-01T13:16:37;96135.88;;;12.51;73.42
47374;BME280;33123;50.118;10.272;2023-04-01T13:19:08;96127.25;;;12.45;73.77
47374;BME280;33123;50.118;10.272;2023-04-01T13:21:44;96129.81;;;12.36;74.19
47374;BME280;33123;50.118;10.272;2023-04-01T13:28:01;96136.84;;;12.41;73.88
47374;BME280;33123;50.118;10.272;2023-04-01T13:30:33;96136.66;;;12.51;74.47
47374;BME280;33123;50.118;10.272;2023-04-01T13:33:05;96146.22;;;12.61;75.05
47374;BME280;33123;50.118;10.272;2023-04-01T13:35:45;96143.28;;;12.49;74.35
47374;BME280;33123;50.118;10.272;2023-04-01T13:41:06;96143.06;;;12.73;74.36
47374;BME280;33123;50.118;10.272;2023-04-01T13:44:09;96142.50;;;12.62;74.03
47374;BME280;33123;50.118;10.272;2023-04-01T13:46:52;96141.75;;;12.34;75.00
47374;BME280;33123;50.118;10.272;2023-04-01T13:49:40;96137.63;;;12.41;75.58
47374;BME280;33123;50.118;10.272;2023-04-01T13:52:23;96142.94;;;12.28;75.97
47374;BME280;33123;50.118;10.272;2023-04-01T13:58:02;96147.72;;;12.12;76.82
47374;BME280;33123;50.118;10.272;2023-04-01T14:00:39;96141.75;;;12.20;77.21
47374;BME280;33123;50.118;10.272;2023-04-01T14:03:27;96149.84;;;12.10;76.89
47374;BME280;33123;50.118;10.272;2023-04-01T14:06:06;96144.22;;;12.17;76.05
47374;BME280;33123;50.118;10.272;2023-04-01T14:08:54;96156.34;;;12.18;75.79
47374;BME280;33123;50.118;10.272;2023-04-01T14:11:31;96149.84;;;12.37;75.44
47374;BME280;33123;50.118;10.272;2023-04-01T14:14:06;96147.22;;;12.37;73.87
47374;BME280;33123;50.118;10.272;2023-04-01T14:16:59;96150.16;;;12.50;72.75
47374;BME280;33123;50.118;10.272;2023-04-01T14:19:41;96153.09;;;12.21;73.32
47374;BME280;33123;50.118;10.272;2023-04-01T14:22:23;96154.34;;;12.37;73.54
47374;BME280;33123;50.118;10.272;2023-04-01T14:25:23;96165.69;;;12.65;72.88
47374;BME280;33123;50.118;10.272;2023-04-01T14:28:03;96161.72;;;12.40;71.38
47374;BME280;33123;50.118;10.272;2023-04-01T14:30:43;96165.09;;;12.54;72.59
47374;BME280;33123;50.118;10.272;2023-04-01T14:33:23;96171.38;;;12.58;72.49
47374;BME280;33123;50.118;10.272;2023-04-01T14:36:08;96162.38;;;12.46;73.05
47374;BME280;33123;50.118;10.272;2023-04-01T14:38:55;96171.38;;;12.58;72.82
47374;BME280;33123;50.118;10.272;2023-04-01T14:41:38;96172.06;;;12.64;73.74
47374;BME280;33123;50.118;10.272;2023-04-01T14:44:44;96166.38;;;12.15;74.62
47374;BME280;33123;50.118;10.272;2023-04-01T14:47:26;96181.66;;;12.46;74.13
47374;BME280;33123;50.118;10.272;2023-04-01T14:50:03;96180.28;;;12.49;74.69